sensor_id;sensor_type;location;lat;lon;timestamp;temperature;humidity
28767;DHT22;15921;52.034;20.650;2023-01-05T00:01:46;7.80;99.90
28767;DHT22;15921;52.034;20.650;2023-01-05T00:04:12;7.80;99.90
28767;DHT22;15921;52.034;20.650;2023-01-05T00:06:39;7.80;99.90
28767;DHT22;15921;52.034;20.650;2023-01-05T00:09:06;7.90;99.90
28767;DHT22;15921;52.034;20.650;2023-01-05T00:11:32;7.90;99.90
28767;DHT22;15921;52.034;20.650;2023-01-05T00:14:22;7.90;99.90
28767;DHT22;15921;52.034;20.650;2023-01-05T00:17:12;7.90;99.90
28767;DHT22;15921;52.034;20.650;2023-01-05T00:19:57;7.90;99.90
28767;DHT22;15921;52.034;20.650;2023-01-05T00:22:58;7.90;99.90
28767;DHT22;15921;52.034;20.650;2023-01-05T00:25:26;7.90;99.90
28767;DHT22;15921;52.034;20.650;2023-01-05T00:27:52;7.90;99.90
28767;DHT22;15921;52.034;20.650;2023-01-05T00:30:20;7.90;99.90
28767;DHT22;15921;52.034;20.650;2023-01-05T00:32:46;7.90;99.90
28767;DHT22;15921;52.034;20.650;2023-01-05T00:35:14;7.90;99.90
28767;DHT22;15921;52.034;20.650;2023-01-05T00:37:40;7.90;99.90
28767;DHT22;15921;52.034;20.650;2023-01-05T00:40:09;7.90;99.90
28767;DHT22;15921;52.034;20.650;2023-01-05T00:42:35;8.00;99.90
28767;DHT22;15921;52.034;20.650;2023-01-05T00:45:01;8.00;99.90
28767;DHT22;15921;52.034;20.650;2023-01-05T00:47:27;8.00;99.90
28767;DHT22;15921;52.034;20.650;2023-01-05T00:49:52;8.00;99.90
28767;DHT22;15921;52.034;20.650;2023-01-05T00:52:18;8.00;99.90
28767;DHT22;15921;52.034;20.650;2023-01-05T00:54:44;8.00;99.90
28767;DHT22;15921;52.034;20.650;2023-01-05T00:57:10;8.00;99.90
28767;DHT22;15921;52.034;20.650;2023-01-05T00:59:36;8.00;99.90
28767;DHT22;15921;52.034;20.650;2023-01-05T01:02:02;8.00;99.90
28767;DHT22;15921;52.034;20.650;2023-01-05T01:04:30;8.00;99.90
28767;DHT22;15921;52.034;20.650;2023-01-05T01:06:56;8.00;99.90
28767;DHT22;15921;52.034;20.650;2023-01-05T01:09:22;8.00;99.90
28767;DHT22;15921;52.034;20.650;2023-01-05T01:11:48;8.00;99.90
28767;DHT22;15921;52.034;20.650;2023-01-05T01:14:14;8.00;99.90
28767;DHT22;15921;52.034;20.650;2023-01-05T01:16:43;8.00;99.90
28767;DHT22;15921;52.034;20.650;2023-01-05T01:19:14;8.00;99.90
28767;DHT22;15921;52.034;20.650;2023-01-05T01:21:40;8.00;99.90
28767;DHT22;15921;52.034;20.650;2023-01-05T01:24:06;8.00;99.90
28767;DHT22;15921;52.034;20.650;2023-01-05T01:26:31;8.00;99.90
28767;DHT22;15921;52.034;20.650;2023-01-05T01:28:57;8.00;99.90
28767;DHT22;15921;52.034;20.650;2023-01-05T01:31:23;8.00;99.90
28767;DHT22;15921;52.034;20.650;2023-01-05T01:33:49;8.00;99.90
28767;DHT22;15921;52.034;20.650;2023-01-05T01:36:15;8.00;99.90
28767;DHT22;15921;52.034;20.650;2023-01-05T01:38:40;8.10;99.90
28767;DHT22;15921;52.034;20.650;2023-01-05T01:41:06;8.10;99.90
28767;DHT22;15921;52.034;20.650;2023-01-05T01:46:12;8.10;99.90
28767;DHT22;15921;52.034;20.650;2023-01-05T01:48:41;8.10;99.90
28767;DHT22;15921;52.034;20.650;2023-01-05T01:51:16;8.10;99.90
28767;DHT22;15921;52.034;20.650;2023-01-05T01:53:48;8.20;99.90
28767;DHT22;15921;52.034;20.650;2023-01-05T01:56:17;8.20;99.90
28767;DHT22;15921;52.034;20.650;2023-01-05T01:58:44;8.20;99.90
28767;DHT22;15921;52.034;20.650;2023-01-05T02:01:10;8.30;99.90
28767;DHT22;15921;52.034;20.650;2023-01-05T02:03:37;8.30;99.90
28767;DHT22;15921;52.034;20.650;2023-01-05T02:06:03;8.30;99.90
28767;DHT22;15921;52.034;20.650;2023-01-05T02:08:28;8.30;99.90
28767;DHT22;15921;52.034;20.650;2023-01-05T02:16:52;8.40;99.90
28767;DHT22;15921;52.034;20.650;2023-01-05T02:28:13;8.50;99.90
28767;DHT22;15921;52.034;20.650;2023-01-05T02:36:53;8.50;99.90
28767;DHT22;15921;52.034;20.650;2023-01-05T02:39:29;8.50;99.90
28767;DHT22;15921;52.034;20.650;2023-01-05T02:42:31;8.50;99.90
28767;DHT22;15921;52.034;20.650;2023-01-05T02:44:49;8.50;99.90
28767;DHT22;15921;52.034;20.650;2023-01-05T02:49:57;8.50;99.90
28767;DHT22;15921;52.034;20.650;2023-01-05T02:52:24;8.50;99.90
28767;DHT22;15921;52.034;20.650;2023-01-05T02:54:59;8.50;99.90
28767;DHT22;15921;52.034;20.650;2023-01-05T02:57:42;8.50;99.90
28767;DHT22;15921;52.034;20.650;2023-01-05T03:02:42;8.50;99.90
28767;DHT22;15921;52.034;20.650;2023-01-05T03:05:16;8.50;99.90
28767;DHT22;15921;52.034;20.650;2023-01-05T03:07:45;8.50;99.90
28767;DHT22;15921;52.034;20.650;2023-01-05T03:10:13;8.50;99.90
28767;DHT22;15921;52.034;20.650;2023-01-05T03:13:01;8.50;99.90
28767;DHT22;15921;52.034;20.650;2023-01-05T03:15:48;8.40;99.90
28767;DHT22;15921;52.034;20.650;2023-01-05T03:18:18;8.50;99.90
28767;DHT22;15921;52.034;20.650;2023-01-05T03:20:48;8.40;99.90
28767;DHT22;15921;52.034;20.650;2023-01-05T03:23:16;8.50;99.90
28767;DHT22;15921;52.034;20.650;2023-01-05T03:26:02;8.50;99.90
28767;DHT22;15921;52.034;20.650;2023-01-05T03:28:50;8.50;99.90
28767;DHT22;15921;52.034;20.650;2023-01-05T03:31:50;8.40;99.90
28767;DHT22;15921;52.034;20.650;2023-01-05T03:37:26;8.40;99.90
28767;DHT22;15921;52.034;20.650;2023-01-05T03:39:53;8.40;99.90
28767;DHT22;15921;52.034;20.650;2023-01-05T03:42:19;8.40;99.90
28767;DHT22;15921;52.034;20.650;2023-01-05T03:44:45;8.40;99.90
28767;DHT22;15921;52.034;20.650;2023-01-05T03:47:13;8.40;99.90
28767;DHT22;15921;52.034;20.650;2023-01-05T03:49:39;8.40;99.90
28767;DHT22;15921;52.034;20.650;2023-01-05T03:52:05;8.40;99.90
28767;DHT22;15921;52.034;20.650;2023-01-05T03:54:30;8.40;99.90
28767;DHT22;15921;52.034;20.650;2023-01-05T03:56:56;8.40;99.90
28767;DHT22;15921;52.034;20.650;2023-01-05T03:59:22;8.40;99.90
28767;DHT22;15921;52.034;20.650;2023-01-05T04:01:47;8.40;99.90
28767;DHT22;15921;52.034;20.650;2023-01-05T04:04:13;8.40;99.90
28767;DHT22;15921;52.034;20.650;2023-01-05T04:06:39;8.40;99.90
28767;DHT22;15921;52.034;20.650;2023-01-05T04:09:05;8.40;99.90
28767;DHT22;15921;52.034;20.650;2023-01-05T04:11:31;8.40;99.90
28767;DHT22;15921;52.034;20.650;2023-01-05T04:13:57;8.40;99.90
28767;DHT22;15921;52.034;20.650;2023-01-05T04:16:23;8.40;99.90
28767;DHT22;15921;52.034;20.650;2023-01-05T04:18:49;8.50;99.90
28767;DHT22;15921;52.034;20.650;2023-01-05T04:21:15;8.50;99.90
28767;DHT22;15921;52.034;20.650;2023-01-05T04:23:41;8.40;99.90
28767;DHT22;15921;52.034;20.650;2023-01-05T04:26:06;8.40;99.90
28767;DHT22;15921;52.034;20.650;2023-01-05T04:28:32;8.50;99.90
28767;DHT22;15921;52.034;20.650;2023-01-05T04:30:58;8.40;99.90
28767;DHT22;15921;52.034;20.650;2023-01-05T04:33:24;8.40;99.90
28767;DHT22;15921;52.034;20.650;2023-01-05T04:35:50;8.40;99.90
28767;DHT22;15921;52.034;20.650;2023-01-05T04:38:16;8.40;99.90
28767;DHT22;15921;52.034;20.650;2023-01-05T04:40:49;8.40;99.90
28767;DHT22;15921;52.034;20.650;2023-01-05T04:43:16;8.40;99.90
28767;DHT22;15921;52.034;20.650;2023-01-05T04:45:42;8.40;99.90
28767;DHT22;15921;52.034;20.650;2023-01-05T04:48:07;8.40;99.90
28767;DHT22;15921;52.034;20.650;2023-01-05T04:50:33;8.40;99.90
28767;DHT22;15921;52.034;20.650;2023-01-05T04:52:59;8.40;99.90
28767;DHT22;15921;52.034;20.650;2023-01-05T04:55:24;8.40;99.90
28767;DHT22;15921;52.034;20.650;2023-01-05T04:57:50;8.40;99.90
28767;DHT22;15921;52.034;20.650;2023-01-05T05:00:16;8.40;99.90
28767;DHT22;15921;52.034;20.650;2023-01-05T05:02:41;8.30;99.90
28767;DHT22;15921;52.034;20.650;2023-01-05T05:05:07;8.30;99.90
28767;DHT22;15921;52.034;20.650;2023-01-05T05:07:33;8.30;99.90
28767;DHT22;15921;52.034;20.650;2023-01-05T05:09:59;8.30;99.90
28767;DHT22;15921;52.034;20.650;2023-01-05T05:12:24;8.30;99.90
28767;DHT22;15921;52.034;20.650;2023-01-05T05:14:50;8.30;99.90
28767;DHT22;15921;52.034;20.650;2023-01-05T05:17:16;8.30;99.90
28767;DHT22;15921;52.034;20.650;2023-01-05T05:19:42;8.30;99.90
28767;DHT22;15921;52.034;20.650;2023-01-05T05:22:10;8.30;99.90
28767;DHT22;15921;52.034;20.650;2023-01-05T05:24:35;8.30;99.90
28767;DHT22;15921;52.034;20.650;2023-01-05T05:27:01;8.30;99.90
28767;DHT22;15921;52.034;20.650;2023-01-05T05:29:27;8.40;99.90
28767;DHT22;15921;52.034;20.650;2023-01-05T05:31:53;8.40;99.90
28767;DHT22;15921;52.034;20.650;2023-01-05T05:34:19;8.40;99.90
28767;DHT22;15921;52.034;20.650;2023-01-05T05:36:44;8.40;99.90
28767;DHT22;15921;52.034;20.650;2023-01-05T05:39:14;8.40;99.90
28767;DHT22;15921;52.034;20.650;2023-01-05T05:41:40;8.40;99.90
28767;DHT22;15921;52.034;20.650;2023-01-05T05:44:06;8.40;99.90
28767;DHT22;15921;52.034;20.650;2023-01-05T05:46:32;8.50;99.90
28767;DHT22;15921;52.034;20.650;2023-01-05T05:48:58;8.50;99.90
28767;DHT22;15921;52.034;20.650;2023-01-05T05:51:24;8.50;99.90
28767;DHT22;15921;52.034;20.650;2023-01-05T05:53:51;8.50;99.90
28767;DHT22;15921;52.034;20.650;2023-01-05T05:56:17;8.50;99.90
28767;DHT22;15921;52.034;20.650;2023-01-05T05:58:42;8.50;99.90
28767;DHT22;15921;52.034;20.650;2023-01-05T06:01:08;8.60;99.90
28767;DHT22;15921;52.034;20.650;2023-01-05T06:03:34;8.50;99.90
28767;DHT22;15921;52.034;20.650;2023-01-05T06:06:01;8.60;99.90
28767;DHT22;15921;52.034;20.650;2023-01-05T06:08:28;8.60;99.90
28767;DHT22;15921;52.034;20.650;2023-01-05T06:10:55;8.60;99.90
28767;DHT22;15921;52.034;20.650;2023-01-05T06:13:21;8.60;99.90
28767;DHT22;15921;52.034;20.650;2023-01-05T06:15:47;8.60;99.90
28767;DHT22;15921;52.034;20.650;2023-01-05T06:18:13;8.60;99.90
28767;DHT22;15921;52.034;20.650;2023-01-05T06:20:40;8.50;99.90
28767;DHT22;15921;52.034;20.650;2023-01-05T06:23:06;8.60;99.90
28767;DHT22;15921;52.034;20.650;2023-01-05T06:25:33;8.60;99.90
28767;DHT22;15921;52.034;20.650;2023-01-05T06:27:59;8.60;99.90
28767;DHT22;15921;52.034;20.650;2023-01-05T06:30:25;8.70;99.90
28767;DHT22;15921;52.034;20.650;2023-01-05T06:32:51;8.70;99.90
28767;DHT22;15921;52.034;20.650;2023-01-05T06:35:16;8.70;99.90
28767;DHT22;15921;52.034;20.650;2023-01-05T06:37:42;8.70;99.90
28767;DHT22;15921;52.034;20.650;2023-01-05T06:40:08;8.70;99.90
28767;DHT22;15921;52.034;20.650;2023-01-05T06:42:36;8.70;99.90
28767;DHT22;15921;52.034;20.650;2023-01-05T06:45:03;8.80;99.90
28767;DHT22;15921;52.034;20.650;2023-01-05T06:47:29;8.70;99.90
28767;DHT22;15921;52.034;20.650;2023-01-05T06:49:55;8.80;99.90
28767;DHT22;15921;52.034;20.650;2023-01-05T06:52:21;8.80;99.90
28767;DHT22;15921;52.034;20.650;2023-01-05T06:54:47;8.80;99.90
28767;DHT22;15921;52.034;20.650;2023-01-05T06:57:12;8.70;99.90
28767;DHT22;15921;52.034;20.650;2023-01-05T06:59:39;8.70;99.90
28767;DHT22;15921;52.034;20.650;2023-01-05T07:02:05;8.60;99.90
28767;DHT22;15921;52.034;20.650;2023-01-05T07:04:34;8.60;99.90
28767;DHT22;15921;52.034;20.650;2023-01-05T07:07:00;8.60;99.90
28767;DHT22;15921;52.034;20.650;2023-01-05T07:09:26;8.60;99.90
28767;DHT22;15921;52.034;20.650;2023-01-05T07:11:51;8.60;99.90
28767;DHT22;15921;52.034;20.650;2023-01-05T07:14:17;8.60;99.90
28767;DHT22;15921;52.034;20.650;2023-01-05T07:16:43;8.60;99.90
28767;DHT22;15921;52.034;20.650;2023-01-05T07:19:11;8.60;99.90
28767;DHT22;15921;52.034;20.650;2023-01-05T07:21:37;8.70;99.90
28767;DHT22;15921;52.034;20.650;2023-01-05T07:24:03;8.70;99.90
28767;DHT22;15921;52.034;20.650;2023-01-05T07:26:29;8.70;99.90
28767;DHT22;15921;52.034;20.650;2023-01-05T07:28:54;8.80;99.90
28767;DHT22;15921;52.034;20.650;2023-01-05T07:31:20;8.80;99.90
28767;DHT22;15921;52.034;20.650;2023-01-05T07:33:46;8.80;99.90
28767;DHT22;15921;52.034;20.650;2023-01-05T07:36:11;8.80;99.90
28767;DHT22;15921;52.034;20.650;2023-01-05T07:38:37;8.80;99.90
28767;DHT22;15921;52.034;20.650;2023-01-05T07:41:03;8.80;99.90
28767;DHT22;15921;52.034;20.650;2023-01-05T07:43:29;8.90;99.90
28767;DHT22;15921;52.034;20.650;2023-01-05T07:46:02;9.00;99.90
28767;DHT22;15921;52.034;20.650;2023-01-05T07:48:28;9.10;99.90
28767;DHT22;15921;52.034;20.650;2023-01-05T07:51:02;9.10;99.90
28767;DHT22;15921;52.034;20.650;2023-01-05T07:53:33;9.20;99.90
28767;DHT22;15921;52.034;20.650;2023-01-05T07:56:00;9.30;99.90
28767;DHT22;15921;52.034;20.650;2023-01-05T07:58:27;9.40;99.90
28767;DHT22;15921;52.034;20.650;2023-01-05T08:00:53;9.40;99.90
28767;DHT22;15921;52.034;20.650;2023-01-05T08:03:19;9.50;99.90
28767;DHT22;15921;52.034;20.650;2023-01-05T08:05:45;9.50;99.90
28767;DHT22;15921;52.034;20.650;2023-01-05T08:08:12;9.50;99.90
28767;DHT22;15921;52.034;20.650;2023-01-05T08:10:39;9.50;99.90
28767;DHT22;15921;52.034;20.650;2023-01-05T08:13:05;9.50;99.90
28767;DHT22;15921;52.034;20.650;2023-01-05T08:15:51;9.50;99.90
28767;DHT22;15921;52.034;20.650;2023-01-05T08:18:18;9.50;99.90
28767;DHT22;15921;52.034;20.650;2023-01-05T08:20:58;9.40;99.90
28767;DHT22;15921;52.034;20.650;2023-01-05T08:23:26;9.40;99.90
28767;DHT22;15921;52.034;20.650;2023-01-05T08:25:52;9.40;99.90
28767;DHT22;15921;52.034;20.650;2023-01-05T08:28:18;9.30;99.90
28767;DHT22;15921;52.034;20.650;2023-01-05T08:30:44;9.40;99.90
28767;DHT22;15921;52.034;20.650;2023-01-05T08:33:10;9.40;99.90
28767;DHT22;15921;52.034;20.650;2023-01-05T08:35:40;9.40;99.90
28767;DHT22;15921;52.034;20.650;2023-01-05T08:38:06;9.40;99.90
28767;DHT22;15921;52.034;20.650;2023-01-05T08:40:31;9.40;99.90
28767;DHT22;15921;52.034;20.650;2023-01-05T08:42:57;9.40;99.90
28767;DHT22;15921;52.034;20.650;2023-01-05T08:45:23;9.50;99.90
28767;DHT22;15921;52.034;20.650;2023-01-05T08:47:48;9.50;99.90
28767;DHT22;15921;52.034;20.650;2023-01-05T08:50:14;9.60;99.90
28767;DHT22;15921;52.034;20.650;2023-01-05T08:52:40;9.80;99.90
28767;DHT22;15921;52.034;20.650;2023-01-05T08:55:06;9.80;99.90
28767;DHT22;15921;52.034;20.650;2023-01-05T08:57:35;9.80;99.90
28767;DHT22;15921;52.034;20.650;2023-01-05T09:00:01;9.80;99.90
28767;DHT22;15921;52.034;20.650;2023-01-05T09:02:27;9.80;99.90
28767;DHT22;15921;52.034;20.650;2023-01-05T09:04:52;9.80;99.90
28767;DHT22;15921;52.034;20.650;2023-01-05T09:07:18;9.80;99.90
28767;DHT22;15921;52.034;20.650;2023-01-05T09:09:44;9.70;99.90
28767;DHT22;15921;52.034;20.650;2023-01-05T09:12:10;9.70;99.90
28767;DHT22;15921;52.034;20.650;2023-01-05T09:14:36;9.70;99.90
28767;DHT22;15921;52.034;20.650;2023-01-05T09:17:02;9.70;99.90
28767;DHT22;15921;52.034;20.650;2023-01-05T09:19:28;9.70;99.90
28767;DHT22;15921;52.034;20.650;2023-01-05T09:21:53;9.80;99.90
28767;DHT22;15921;52.034;20.650;2023-01-05T09:24:20;9.90;99.90
28767;DHT22;15921;52.034;20.650;2023-01-05T09:26:46;10.00;99.90
28767;DHT22;15921;52.034;20.650;2023-01-05T09:29:12;10.10;99.90
28767;DHT22;15921;52.034;20.650;2023-01-05T09:31:39;10.10;99.90
28767;DHT22;15921;52.034;20.650;2023-01-05T09:34:05;10.20;99.90
28767;DHT22;15921;52.034;20.650;2023-01-05T09:36:31;10.20;99.90
28767;DHT22;15921;52.034;20.650;2023-01-05T09:38:57;10.10;99.90
28767;DHT22;15921;52.034;20.650;2023-01-05T09:41:37;9.90;99.90
28767;DHT22;15921;52.034;20.650;2023-01-05T09:44:09;9.90;99.90
28767;DHT22;15921;52.034;20.650;2023-01-05T09:46:38;9.80;99.90
28767;DHT22;15921;52.034;20.650;2023-01-05T09:49:09;9.80;99.90
28767;DHT22;15921;52.034;20.650;2023-01-05T09:51:36;9.80;99.90
28767;DHT22;15921;52.034;20.650;2023-01-05T09:54:02;9.80;99.90
28767;DHT22;15921;52.034;20.650;2023-01-05T09:56:34;9.70;99.90
28767;DHT22;15921;52.034;20.650;2023-01-05T09:59:09;9.70;99.90
28767;DHT22;15921;52.034;20.650;2023-01-05T10:01:37;9.70;99.90
28767;DHT22;15921;52.034;20.650;2023-01-05T10:04:09;9.70;99.90
28767;DHT22;15921;52.034;20.650;2023-01-05T10:06:39;9.70;99.90
28767;DHT22;15921;52.034;20.650;2023-01-05T10:09:06;9.70;99.90
28767;DHT22;15921;52.034;20.650;2023-01-05T10:15:20;9.60;99.90
28767;DHT22;15921;52.034;20.650;2023-01-05T10:17:46;9.50;99.90
28767;DHT22;15921;52.034;20.650;2023-01-05T10:20:24;9.50;99.90
28767;DHT22;15921;52.034;20.650;2023-01-05T10:25:47;9.40;99.90
28767;DHT22;15921;52.034;20.650;2023-01-05T10:28:18;9.40;99.90
28767;DHT22;15921;52.034;20.650;2023-01-05T10:30:49;9.30;99.90
28767;DHT22;15921;52.034;20.650;2023-01-05T10:33:37;9.10;99.90
28767;DHT22;15921;52.034;20.650;2023-01-05T10:46:29;8.70;99.90
28767;DHT22;15921;52.034;20.650;2023-01-05T10:48:55;8.80;99.90
28767;DHT22;15921;52.034;20.650;2023-01-05T10:51:21;8.80;99.90
28767;DHT22;15921;52.034;20.650;2023-01-05T10:53:47;8.80;99.90
28767;DHT22;15921;52.034;20.650;2023-01-05T10:56:17;8.80;99.90
28767;DHT22;15921;52.034;20.650;2023-01-05T10:58:47;9.00;99.90
28767;DHT22;15921;52.034;20.650;2023-01-05T11:01:26;9.30;99.90
28767;DHT22;15921;52.034;20.650;2023-01-05T11:04:12;9.50;99.90
28767;DHT22;15921;52.034;20.650;2023-01-05T11:06:40;9.70;99.90
28767;DHT22;15921;52.034;20.650;2023-01-05T11:09:16;9.80;99.90
28767;DHT22;15921;52.034;20.650;2023-01-05T11:11:43;9.90;99.90
28767;DHT22;15921;52.034;20.650;2023-01-05T11:14:16;9.80;99.90
28767;DHT22;15921;52.034;20.650;2023-01-05T11:16:50;9.80;99.90
28767;DHT22;15921;52.034;20.650;2023-01-05T11:19:24;9.90;99.90
28767;DHT22;15921;52.034;20.650;2023-01-05T11:21:59;10.00;99.90
28767;DHT22;15921;52.034;20.650;2023-01-05T11:24:33;10.00;99.90
28767;DHT22;15921;52.034;20.650;2023-01-05T11:27:21;10.20;99.90
28767;DHT22;15921;52.034;20.650;2023-01-05T11:32:41;10.40;99.90
28767;DHT22;15921;52.034;20.650;2023-01-05T11:35:28;10.30;99.90
28767;DHT22;15921;52.034;20.650;2023-01-05T11:37:54;10.20;99.90
28767;DHT22;15921;52.034;20.650;2023-01-05T11:40:25;10.20;99.90
28767;DHT22;15921;52.034;20.650;2023-01-05T11:42:52;10.40;99.90
28767;DHT22;15921;52.034;20.650;2023-01-05T11:45:23;10.60;99.90
28767;DHT22;15921;52.034;20.650;2023-01-05T11:48:00;10.60;99.90
28767;DHT22;15921;52.034;20.650;2023-01-05T11:50:48;10.60;99.90
28767;DHT22;15921;52.034;20.650;2023-01-05T11:53:38;10.80;99.90
28767;DHT22;15921;52.034;20.650;2023-01-05T11:58:44;11.50;99.90
28767;DHT22;15921;52.034;20.650;2023-01-05T12:01:58;11.50;99.90
28767;DHT22;15921;52.034;20.650;2023-01-05T12:07:34;11.60;99.20
28767;DHT22;15921;52.034;20.650;2023-01-05T12:13:19;11.90;95.90
28767;DHT22;15921;52.034;20.650;2023-01-05T12:16:11;11.40;95.60
28767;DHT22;15921;52.034;20.650;2023-01-05T12:19:29;10.80;97.00
28767;DHT22;15921;52.034;20.650;2023-01-05T12:21:37;11.20;98.70
28767;DHT22;15921;52.034;20.650;2023-01-05T12:27:35;13.80;91.90
28767;DHT22;15921;52.034;20.650;2023-01-05T12:39:10;10.80;93.80
28767;DHT22;15921;52.034;20.650;2023-01-05T12:44:36;9.90;96.00
28767;DHT22;15921;52.034;20.650;2023-01-05T12:47:26;9.70;97.40
28767;DHT22;15921;52.034;20.650;2023-01-05T12:50:12;9.60;98.60
28767;DHT22;15921;52.034;20.650;2023-01-05T12:52:45;9.50;99.10
28767;DHT22;15921;52.034;20.650;2023-01-05T12:55:21;9.30;99.20
28767;DHT22;15921;52.034;20.650;2023-01-05T12:58:03;9.30;99.50
28767;DHT22;15921;52.034;20.650;2023-01-05T13:00:35;9.10;99.90
28767;DHT22;15921;52.034;20.650;2023-01-05T13:03:04;9.00;99.90
28767;DHT22;15921;52.034;20.650;2023-01-05T13:05:47;8.90;99.90
28767;DHT22;15921;52.034;20.650;2023-01-05T13:08:36;8.80;99.90
28767;DHT22;15921;52.034;20.650;2023-01-05T13:13:40;8.60;99.90
28767;DHT22;15921;52.034;20.650;2023-01-05T13:16:22;8.50;99.90
28767;DHT22;15921;52.034;20.650;2023-01-05T13:21:41;8.30;99.90
28767;DHT22;15921;52.034;20.650;2023-01-05T13:24:16;8.20;99.90
28767;DHT22;15921;52.034;20.650;2023-01-05T13:26:47;8.10;99.90
28767;DHT22;15921;52.034;20.650;2023-01-05T13:29:29;8.10;99.90
28767;DHT22;15921;52.034;20.650;2023-01-05T13:35:09;7.90;99.90
28767;DHT22;15921;52.034;20.650;2023-01-05T13:56:58;7.20;99.90
28767;DHT22;15921;52.034;20.650;2023-01-05T13:59:34;7.10;99.90
28767;DHT22;15921;52.034;20.650;2023-01-05T14:02:04;7.10;99.90
28767;DHT22;15921;52.034;20.650;2023-01-05T14:04:50;7.00;99.90
28767;DHT22;15921;52.034;20.650;2023-01-05T14:07:18;7.00;99.90
28767;DHT22;15921;52.034;20.650;2023-01-05T14:09:54;7.00;99.90
28767;DHT22;15921;52.034;20.650;2023-01-05T14:12:40;7.00;99.90
28767;DHT22;15921;52.034;20.650;2023-01-05T14:22:59;7.00;99.90
28767;DHT22;15921;52.034;20.650;2023-01-05T14:34:11;7.00;99.90
28767;DHT22;15921;52.034;20.650;2023-01-05T14:37:21;7.00;99.90
28767;DHT22;15921;52.034;20.650;2023-01-05T14:39:34;7.00;99.90
28767;DHT22;15921;52.034;20.650;2023-01-05T14:42:20;7.00;99.90
28767;DHT22;15921;52.034;20.650;2023-01-05T14:44:58;7.00;99.90
28767;DHT22;15921;52.034;20.650;2023-01-05T14:47:40;7.00;99.90
28767;DHT22;15921;52.034;20.650;2023-01-05T14:55:28;7.10;99.90
28767;DHT22;15921;52.034;20.650;2023-01-05T14:57:57;7.20;99.90
28767;DHT22;15921;52.034;20.650;2023-01-05T15:05:39;7.40;99.90
28767;DHT22;15921;52.034;20.650;2023-01-05T15:11:56;7.40;99.90
28767;DHT22;15921;52.034;20.650;2023-01-05T15:19:43;7.60;99.90
28767;DHT22;15921;52.034;20.650;2023-01-05T15:33:57;7.60;99.90
28767;DHT22;15921;52.034;20.650;2023-01-05T15:36:40;7.60;99.90
28767;DHT22;15921;52.034;20.650;2023-01-05T15:41:47;7.60;99.90
28767;DHT22;15921;52.034;20.650;2023-01-05T15:44:16;7.40;99.90
28767;DHT22;15921;52.034;20.650;2023-01-05T15:46:44;7.40;99.90
28767;DHT22;15921;52.034;20.650;2023-01-05T15:49:19;7.40;99.90
28767;DHT22;15921;52.034;20.650;2023-01-05T15:51:51;7.40;99.90
28767;DHT22;15921;52.034;20.650;2023-01-05T15:54:34;7.40;99.90
28767;DHT22;15921;52.034;20.650;2023-01-05T15:57:00;7.40;99.90
28767;DHT22;15921;52.034;20.650;2023-01-05T15:59:35;7.40;99.90
28767;DHT22;15921;52.034;20.650;2023-01-05T16:02:15;7.40;99.90
28767;DHT22;15921;52.034;20.650;2023-01-05T16:04:41;7.50;99.90
28767;DHT22;15921;52.034;20.650;2023-01-05T16:07:09;7.50;99.90
28767;DHT22;15921;52.034;20.650;2023-01-05T16:09:38;7.50;99.90
28767;DHT22;15921;52.034;20.650;2023-01-05T16:12:08;7.60;99.90
28767;DHT22;15921;52.034;20.650;2023-01-05T16:14:43;7.60;99.90
28767;DHT22;15921;52.034;20.650;2023-01-05T16:17:19;7.50;99.90
28767;DHT22;15921;52.034;20.650;2023-01-05T16:19:54;7.40;99.90
28767;DHT22;15921;52.034;20.650;2023-01-05T16:22:27;7.30;99.90
28767;DHT22;15921;52.034;20.650;2023-01-05T16:25:02;7.10;99.90
28767;DHT22;15921;52.034;20.650;2023-01-05T16:27:29;7.00;99.90
28767;DHT22;15921;52.034;20.650;2023-01-05T16:30:33;6.80;99.90
28767;DHT22;15921;52.034;20.650;2023-01-05T16:33:01;6.80;99.90
28767;DHT22;15921;52.034;20.650;2023-01-05T16:35:48;6.70;99.90
28767;DHT22;15921;52.034;20.650;2023-01-05T16:38:28;6.60;99.90
28767;DHT22;15921;52.034;20.650;2023-01-05T16:41:02;6.60;99.90
28767;DHT22;15921;52.034;20.650;2023-01-05T16:43:34;6.60;99.90
28767;DHT22;15921;52.034;20.650;2023-01-05T16:46:27;6.50;99.90
28767;DHT22;15921;52.034;20.650;2023-01-05T16:49:26;6.50;99.90
28767;DHT22;15921;52.034;20.650;2023-01-05T16:51:54;6.40;99.90
28767;DHT22;15921;52.034;20.650;2023-01-05T16:54:25;6.40;99.90
28767;DHT22;15921;52.034;20.650;2023-01-05T16:56:59;6.40;99.90
28767;DHT22;15921;52.034;20.650;2023-01-05T16:59:40;6.40;99.90
28767;DHT22;15921;52.034;20.650;2023-01-05T17:02:26;6.30;99.90
28767;DHT22;15921;52.034;20.650;2023-01-05T17:04:52;6.30;99.90
28767;DHT22;15921;52.034;20.650;2023-01-05T17:07:18;6.20;99.90
28767;DHT22;15921;52.034;20.650;2023-01-05T17:09:44;6.20;99.90
28767;DHT22;15921;52.034;20.650;2023-01-05T17:12:11;6.20;99.90
28767;DHT22;15921;52.034;20.650;2023-01-05T17:14:37;6.20;99.90
28767;DHT22;15921;52.034;20.650;2023-01-05T17:17:04;6.20;99.90
28767;DHT22;15921;52.034;20.650;2023-01-05T17:19:34;6.20;99.90
28767;DHT22;15921;52.034;20.650;2023-01-05T17:22:03;6.20;99.90
28767;DHT22;15921;52.034;20.650;2023-01-05T17:24:30;6.20;99.90
28767;DHT22;15921;52.034;20.650;2023-01-05T17:26:56;6.10;99.90
28767;DHT22;15921;52.034;20.650;2023-01-05T17:29:29;6.10;99.90
28767;DHT22;15921;52.034;20.650;2023-01-05T17:31:57;6.00;99.90
28767;DHT22;15921;52.034;20.650;2023-01-05T17:34:24;6.00;99.90
28767;DHT22;15921;52.034;20.650;2023-01-05T17:36:53;5.90;99.90
28767;DHT22;15921;52.034;20.650;2023-01-05T17:39:20;5.90;99.90
28767;DHT22;15921;52.034;20.650;2023-01-05T17:41:48;5.80;99.90
28767;DHT22;15921;52.034;20.650;2023-01-05T17:44:14;5.80;99.90
28767;DHT22;15921;52.034;20.650;2023-01-05T17:46:42;5.80;99.90
28767;DHT22;15921;52.034;20.650;2023-01-05T17:49:19;5.80;99.90
28767;DHT22;15921;52.034;20.650;2023-01-05T17:51:47;5.80;99.90
28767;DHT22;15921;52.034;20.650;2023-01-05T17:54:13;5.80;99.90
28767;DHT22;15921;52.034;20.650;2023-01-05T17:56:39;5.70;99.90
28767;DHT22;15921;52.034;20.650;2023-01-05T17:59:06;5.70;99.90
28767;DHT22;15921;52.034;20.650;2023-01-05T18:01:34;5.70;99.90
28767;DHT22;15921;52.034;20.650;2023-01-05T18:04:01;5.70;99.90
28767;DHT22;15921;52.034;20.650;2023-01-05T18:06:27;5.70;99.90
28767;DHT22;15921;52.034;20.650;2023-01-05T18:08:52;5.70;99.90
28767;DHT22;15921;52.034;20.650;2023-01-05T18:11:20;5.70;99.90
28767;DHT22;15921;52.034;20.650;2023-01-05T18:13:47;5.70;99.90
28767;DHT22;15921;52.034;20.650;2023-01-05T18:16:15;5.70;99.90
28767;DHT22;15921;52.034;20.650;2023-01-05T18:18:41;5.70;99.90
28767;DHT22;15921;52.034;20.650;2023-01-05T18:21:07;5.70;99.90
28767;DHT22;15921;52.034;20.650;2023-01-05T18:23:45;5.60;99.90